createdAt,value
2023-03-07T00:00:41.888Z,-0.49
2023-03-07T00:03:17.040Z,-0.55
2023-03-07T00:05:44.818Z,-0.61
2023-03-07T00:08:12.830Z,-0.67
2023-03-07T00:10:40.697Z,-0.72
2023-03-07T00:13:08.964Z,-0.79
2023-03-07T00:15:38.319Z,-0.86
2023-03-07T00:18:07.452Z,-0.93
2023-03-07T00:20:35.227Z,-0.99
2023-03-07T00:23:04.828Z,-1.03
2023-03-07T00:25:32.414Z,-1.08
2023-03-07T00:28:00.007Z,-1.12
2023-03-07T00:30:27.832Z,-1.14
2023-03-07T00:32:55.614Z,-1.16
2023-03-07T00:35:23.226Z,-1.18
2023-03-07T00:37:50.843Z,-1.18
2023-03-07T00:40:18.451Z,-1.18
2023-03-07T00:42:46.109Z,-1.18
2023-03-07T00:45:13.872Z,-1.20
2023-03-07T00:47:41.494Z,-1.22
2023-03-07T00:50:09.821Z,-1.26
2023-03-07T00:52:37.438Z,-1.31
2023-03-07T00:55:06.223Z,-1.36
2023-03-07T00:57:34.079Z,-1.39
2023-03-07T01:00:01.724Z,-1.42
2023-03-07T01:02:30.006Z,-1.46
2023-03-07T01:04:57.756Z,-1.51
2023-03-07T01:07:25.348Z,-1.57
2023-03-07T01:09:53.281Z,-1.63
2023-03-07T01:12:21.217Z,-1.67
2023-03-07T01:14:51.922Z,-1.71
2023-03-07T01:17:19.960Z,-1.74
2023-03-07T01:19:47.590Z,-1.76
2023-03-07T01:22:15.232Z,-1.80
2023-03-07T01:24:43.091Z,-1.84
2023-03-07T01:27:10.845Z,-1.95
2023-03-07T01:29:38.732Z,-2.08
2023-03-07T01:32:06.626Z,-2.17
2023-03-07T01:34:34.490Z,-2.29
2023-03-07T01:37:02.170Z,-2.39
2023-03-07T01:39:30.519Z,-2.46
2023-03-07T01:42:02.322Z,-2.61
2023-03-07T01:44:30.865Z,-2.65
2023-03-07T01:47:00.065Z,-2.70
2023-03-07T01:49:43.027Z,-2.78
2023-03-07T01:52:33.162Z,-2.88
2023-03-07T01:55:08.218Z,-2.97
2023-03-07T01:57:37.791Z,-2.99
2023-03-07T02:00:10.812Z,-2.99
2023-03-07T02:02:44.408Z,-3.02
2023-03-07T02:05:16.558Z,-3.08
2023-03-07T02:07:47.111Z,-3.13
2023-03-07T02:10:19.669Z,-3.17
2023-03-07T02:13:44.274Z,-3.21
2023-03-07T02:16:39.180Z,-3.35
2023-03-07T02:19:19.567Z,-3.40
2023-03-07T02:22:00.218Z,-3.43
2023-03-07T02:24:36.542Z,-3.46
2023-03-07T02:27:05.975Z,-3.47
2023-03-07T02:29:33.830Z,-3.48
2023-03-07T02:32:02.437Z,-3.51
2023-03-07T02:34:31.414Z,-3.57
2023-03-07T02:37:20.710Z,-3.71
2023-03-07T02:39:48.763Z,-3.89
2023-03-07T02:42:22.545Z,-3.99
2023-03-07T02:44:58.799Z,-4.04
2023-03-07T02:47:28.131Z,-4.12
2023-03-07T02:49:56.158Z,-4.24
2023-03-07T02:52:24.573Z,-4.27
2023-03-07T02:54:52.266Z,-4.30
2023-03-07T02:57:20.300Z,-4.34
2023-03-07T02:59:47.984Z,-4.39
2023-03-07T03:02:15.648Z,-4.42
2023-03-07T03:04:43.533Z,-4.46
2023-03-07T03:07:11.214Z,-4.48
2023-03-07T03:09:38.820Z,-4.56
2023-03-07T03:12:06.815Z,-4.67
2023-03-07T03:14:35.063Z,-4.79
2023-03-07T03:17:03.895Z,-4.89
2023-03-07T03:19:31.586Z,-4.93
2023-03-07T03:22:14.366Z,-4.95
2023-03-07T03:24:45.500Z,-5.01
2023-03-07T03:27:15.359Z,-5.06
2023-03-07T03:29:44.595Z,-5.10
2023-03-07T03:32:12.931Z,-5.13
2023-03-07T03:34:41.117Z,-5.16
2023-03-07T03:37:08.996Z,-5.20
2023-03-07T03:39:37.608Z,-5.27
2023-03-07T03:42:06.302Z,-5.32
2023-03-07T03:44:34.448Z,-5.38
2023-03-07T03:47:04.240Z,-5.42
2023-03-07T03:49:33.142Z,-5.47
2023-03-07T03:52:01.026Z,-5.48
2023-03-07T03:54:28.915Z,-5.50
2023-03-07T03:56:57.860Z,-5.51
2023-03-07T03:59:25.531Z,-5.53
2023-03-07T04:01:55.088Z,-5.55
2023-03-07T04:04:23.243Z,-5.58
2023-03-07T04:06:51.003Z,-5.63
2023-03-07T04:09:18.670Z,-5.66
2023-03-07T04:11:48.320Z,-5.69
2023-03-07T04:14:16.239Z,-5.71
2023-03-07T04:16:43.978Z,-5.71
2023-03-07T04:19:13.098Z,-5.72
2023-03-07T04:21:42.030Z,-5.72
2023-03-07T04:24:09.947Z,-5.73
2023-03-07T04:26:37.849Z,-5.74
2023-03-07T04:29:05.581Z,-5.72
2023-03-07T04:31:36.810Z,-5.71
2023-03-07T04:34:06.135Z,-5.72
2023-03-07T04:36:34.237Z,-5.73
2023-03-07T04:39:01.841Z,-5.73
2023-03-07T04:41:30.917Z,-5.72
2023-03-07T04:44:02.538Z,-5.72
2023-03-07T04:46:30.279Z,-5.72
2023-03-07T04:48:57.936Z,-5.70
2023-03-07T04:51:26.083Z,-5.67
2023-03-07T04:53:53.722Z,-5.62
2023-03-07T04:56:21.413Z,-5.57
2023-03-07T04:58:49.182Z,-5.51
2023-03-07T05:01:18.853Z,-5.44
2023-03-07T05:03:47.446Z,-5.39
2023-03-07T05:06:17.021Z,-5.34
2023-03-07T05:08:48.967Z,-5.27
2023-03-07T05:11:17.203Z,-5.17
2023-03-07T05:13:45.132Z,-5.08
2023-03-07T05:16:17.626Z,-4.96
2023-03-07T05:18:45.508Z,-4.81
2023-03-07T05:21:13.442Z,-4.64
2023-03-07T05:23:41.444Z,-4.45
2023-03-07T05:26:10.092Z,-4.33
2023-03-07T05:28:38.268Z,-4.21
2023-03-07T05:31:05.909Z,-4.10
2023-03-07T05:33:33.911Z,-3.90
2023-03-07T05:36:02.240Z,-3.67
2023-03-07T05:38:30.665Z,-3.46
2023-03-07T05:40:58.337Z,-3.28
2023-03-07T05:43:26.474Z,-3.13
2023-03-07T05:45:54.397Z,-3.00
2023-03-07T05:48:22.234Z,-2.84
2023-03-07T05:50:50.391Z,-2.71
2023-03-07T05:53:19.644Z,-2.60
2023-03-07T05:55:47.901Z,-2.52
2023-03-07T05:58:17.699Z,-2.44
2023-03-07T06:00:47.022Z,-2.37
2023-03-07T06:03:15.441Z,-2.32
2023-03-07T06:05:43.380Z,-2.25
2023-03-07T06:08:11.047Z,-2.15
2023-03-07T06:10:40.197Z,-2.07
2023-03-07T06:13:19.836Z,-1.98
2023-03-07T06:15:54.406Z,-1.87
2023-03-07T06:18:24.664Z,-1.77
2023-03-07T06:21:00.836Z,-1.67
2023-03-07T06:23:31.416Z,-1.58
2023-03-07T06:26:00.324Z,-1.49
2023-03-07T06:28:29.563Z,-1.43
2023-03-07T06:30:58.003Z,-1.37
2023-03-07T06:33:25.696Z,-1.32
2023-03-07T06:35:53.581Z,-1.27
2023-03-07T06:38:21.371Z,-1.20
2023-03-07T06:40:56.557Z,-1.09
2023-03-07T06:43:24.550Z,-0.96
2023-03-07T06:45:52.448Z,-0.88
2023-03-07T06:48:20.990Z,-0.82
2023-03-07T06:50:48.794Z,-0.77
2023-03-07T06:53:16.685Z,-0.72
2023-03-07T06:55:49.598Z,-0.66
2023-03-07T06:58:17.586Z,-0.63
2023-03-07T07:00:45.851Z,-0.58
2023-03-07T07:03:14.786Z,-0.49
2023-03-07T07:05:42.654Z,-0.42
2023-03-07T07:08:10.419Z,-0.35
2023-03-07T07:10:38.356Z,-0.27
2023-03-07T07:13:06.699Z,-0.18
2023-03-07T07:15:34.543Z,-0.10
2023-03-07T07:18:02.396Z,-0.03
2023-03-07T07:20:33.140Z,0.03
2023-03-07T07:23:01.199Z,0.10
2023-03-07T07:25:28.833Z,0.17
2023-03-07T07:27:56.589Z,0.24
2023-03-07T07:30:24.782Z,0.30
2023-03-07T07:32:52.496Z,0.39
2023-03-07T07:35:22.274Z,0.47
2023-03-07T07:37:49.986Z,0.56
2023-03-07T07:40:17.836Z,0.64
2023-03-07T07:42:54.636Z,0.66
2023-03-07T07:45:42.154Z,0.65
2023-03-07T07:48:10.489Z,0.67
2023-03-07T07:50:38.611Z,0.72
2023-03-07T07:53:06.647Z,0.76
2023-03-07T07:55:34.943Z,0.78
2023-03-07T07:58:02.669Z,0.81
2023-03-07T08:00:31.131Z,0.83
2023-03-07T08:02:59.157Z,0.88
2023-03-07T08:05:26.866Z,0.90
2023-03-07T08:07:54.554Z,0.94
2023-03-07T08:10:22.226Z,1.01
2023-03-07T08:12:53.461Z,1.07
2023-03-07T08:15:24.217Z,1.14
2023-03-07T08:17:52.611Z,1.23
2023-03-07T08:20:22.429Z,1.29
2023-03-07T08:22:53.199Z,1.32
2023-03-07T08:25:23.723Z,1.34
2023-03-07T08:27:55.590Z,1.38
2023-03-07T08:30:25.522Z,1.43
2023-03-07T08:32:54.236Z,1.47
2023-03-07T08:35:22.896Z,1.54
2023-03-07T08:37:54.589Z,1.66
2023-03-07T08:40:24.813Z,1.80
2023-03-07T08:42:54.976Z,1.91
2023-03-07T08:45:23.768Z,2.06
2023-03-07T08:47:55.508Z,2.20
2023-03-07T08:50:25.922Z,2.31
2023-03-07T08:52:53.752Z,2.30
2023-03-07T08:55:21.387Z,2.26
2023-03-07T08:57:49.027Z,2.27
2023-03-07T09:00:17.865Z,2.28
2023-03-07T09:02:45.656Z,2.24
2023-03-07T09:05:14.224Z,2.27
2023-03-07T09:07:42.414Z,2.33
2023-03-07T09:10:11.634Z,2.40
2023-03-07T09:12:39.261Z,2.45
2023-03-07T09:15:08.671Z,2.52
2023-03-07T09:17:36.339Z,2.63
2023-03-07T09:20:06.178Z,2.64
2023-03-07T09:22:33.773Z,2.62
2023-03-07T09:25:01.682Z,2.69
2023-03-07T09:27:29.330Z,2.83
2023-03-07T09:29:56.897Z,2.83
2023-03-07T09:32:24.515Z,2.82
2023-03-07T09:34:53.169Z,2.86
2023-03-07T09:37:20.828Z,2.98
2023-03-07T09:39:51.351Z,3.11
2023-03-07T09:42:29.899Z,3.24
2023-03-07T09:45:03.767Z,3.22
2023-03-07T09:48:24.759Z,3.15
2023-03-07T09:50:54.875Z,3.11
2023-03-07T09:53:35.584Z,3.20
2023-03-07T09:56:07.156Z,3.23
2023-03-07T09:58:38.910Z,3.30
2023-03-07T10:01:08.467Z,3.34
2023-03-07T10:03:48.464Z,3.40
2023-03-07T10:06:26.688Z,3.44
2023-03-07T10:08:55.111Z,3.52
2023-03-07T10:11:43.281Z,3.55
2023-03-07T10:14:39.166Z,3.57
2023-03-07T10:17:44.600Z,3.66
2023-03-07T10:20:24.771Z,3.73
2023-03-07T10:22:59.913Z,3.83
2023-03-07T10:25:53.999Z,3.90
2023-03-07T10:28:27.483Z,3.94
2023-03-07T10:30:59.157Z,4.06
2023-03-07T10:33:29.158Z,4.18
2023-03-07T10:36:08.343Z,4.26
2023-03-07T10:39:13.016Z,4.27
2023-03-07T10:41:40.724Z,4.28
2023-03-07T10:44:17.766Z,4.27
2023-03-07T10:46:55.305Z,4.28
2023-03-07T10:49:37.859Z,4.28
2023-03-07T10:52:20.068Z,4.21
2023-03-07T10:54:47.668Z,4.14
2023-03-07T10:57:19.176Z,4.17
2023-03-07T10:59:48.561Z,4.24
2023-03-07T11:02:26.966Z,4.35
2023-03-07T11:04:55.269Z,4.45
2023-03-07T11:07:34.703Z,4.57
2023-03-07T11:10:33.159Z,4.69
2023-03-07T11:13:17.025Z,4.82
2023-03-07T11:15:45.234Z,4.93
2023-03-07T11:18:31.179Z,4.99
2023-03-07T11:20:59.268Z,4.95
2023-03-07T11:23:29.003Z,4.99
2023-03-07T11:25:58.788Z,5.11
2023-03-07T11:28:30.522Z,5.24
2023-03-07T11:31:07.661Z,5.30
2023-03-07T11:33:58.491Z,5.35
2023-03-07T11:36:32.035Z,5.46
2023-03-07T11:39:14.752Z,5.52
2023-03-07T11:41:46.969Z,5.56
2023-03-07T11:44:29.832Z,5.59
2023-03-07T11:47:38.534Z,5.61
2023-03-07T11:50:12.804Z,5.64
2023-03-07T11:52:59.557Z,5.69
2023-03-07T11:55:36.518Z,5.73
2023-03-07T11:58:35.528Z,5.79
2023-03-07T12:01:16.024Z,5.83
2023-03-07T12:03:55.868Z,5.88
2023-03-07T12:06:50.494Z,5.90
2023-03-07T12:09:36.987Z,5.90
2023-03-07T12:12:10.508Z,5.88
2023-03-07T12:14:50.323Z,5.87
2023-03-07T12:17:29.363Z,5.91
2023-03-07T12:20:35.040Z,5.94
2023-03-07T12:23:15.600Z,5.93
2023-03-07T12:25:46.200Z,5.90
2023-03-07T12:28:22.173Z,5.91
2023-03-07T12:30:56.339Z,5.93
2023-03-07T12:33:29.497Z,5.91
2023-03-07T12:36:04.859Z,5.89
2023-03-07T12:38:57.972Z,5.88
2023-03-07T12:41:44.283Z,5.82
2023-03-07T12:44:30.004Z,5.78
2023-03-07T12:47:20.134Z,5.75
2023-03-07T12:50:00.560Z,5.71
2023-03-07T12:52:34.435Z,5.60
2023-03-07T12:55:36.395Z,5.54
2023-03-07T12:58:13.372Z,5.45
2023-03-07T13:00:46.668Z,5.39
2023-03-07T13:03:48.756Z,5.35
2023-03-07T13:06:21.078Z,5.30
2023-03-07T13:08:54.659Z,5.25
2023-03-07T13:11:25.102Z,5.23
2023-03-07T13:13:53.810Z,5.22
2023-03-07T13:16:42.209Z,5.22
2023-03-07T13:19:35.237Z,5.20
2023-03-07T13:22:15.241Z,5.17
2023-03-07T13:24:44.275Z,5.14
2023-03-07T13:27:17.534Z,5.15
2023-03-07T13:30:10.425Z,5.16
2023-03-07T13:32:56.418Z,5.17
2023-03-07T13:35:24.074Z,5.20
2023-03-07T13:37:57.262Z,5.23
2023-03-07T13:40:36.979Z,5.28
2023-03-07T13:43:09.875Z,5.32
2023-03-07T13:45:37.456Z,5.34
2023-03-07T13:48:12.228Z,5.37
2023-03-07T13:50:42.956Z,5.41
2023-03-07T13:53:16.087Z,5.44
2023-03-07T13:55:50.882Z,5.49
2023-03-07T13:58:24.124Z,5.51
2023-03-07T14:01:04.200Z,5.53
2023-03-07T14:03:46.052Z,5.56
2023-03-07T14:06:17.056Z,5.60
2023-03-07T14:08:45.742Z,5.64
2023-03-07T14:11:21.156Z,5.68
2023-03-07T14:14:05.599Z,5.70
2023-03-07T14:16:54.139Z,5.71
2023-03-07T14:20:09.590Z,5.71
2023-03-07T14:22:40.951Z,5.66
2023-03-07T14:25:17.524Z,5.67
2023-03-07T14:28:00.220Z,5.67
2023-03-07T14:30:31.412Z,5.69
2023-03-07T14:33:00.160Z,5.70
2023-03-07T14:35:42.315Z,5.72
2023-03-07T14:38:20.232Z,5.70
2023-03-07T14:41:15.042Z,5.69
2023-03-07T14:43:52.893Z,5.68
2023-03-07T14:46:45.234Z,5.66
2023-03-07T14:49:42.488Z,5.65
2023-03-07T14:52:24.676Z,5.62
2023-03-07T14:55:00.184Z,5.61
2023-03-07T14:57:33.280Z,5.62
2023-03-07T15:00:15.458Z,5.61
2023-03-07T15:02:54.155Z,5.60
2023-03-07T15:05:29.222Z,5.57
2023-03-07T15:07:57.250Z,5.56
2023-03-07T15:10:28.350Z,5.57
2023-03-07T15:12:57.217Z,5.58
2023-03-07T15:15:35.801Z,5.56
2023-03-07T15:18:07.352Z,5.56
2023-03-07T15:20:35.261Z,5.53
2023-03-07T15:23:06.036Z,5.51
2023-03-07T15:25:38.669Z,5.50
2023-03-07T15:28:16.898Z,5.47
2023-03-07T15:30:48.145Z,5.43
2023-03-07T15:33:18.578Z,5.41
2023-03-07T15:36:08.426Z,5.38
2023-03-07T15:38:36.143Z,5.36
2023-03-07T15:41:24.224Z,5.36
2023-03-07T15:44:12.088Z,5.35
2023-03-07T15:46:51.627Z,5.34
2023-03-07T15:49:41.595Z,5.33
2023-03-07T15:52:27.715Z,5.33
2023-03-07T15:54:57.716Z,5.34
2023-03-07T15:57:34.321Z,5.33
2023-03-07T16:00:08.458Z,5.32
2023-03-07T16:02:39.735Z,5.31
2023-03-07T16:05:28.105Z,5.30
2023-03-07T16:07:59.608Z,5.26
2023-03-07T16:10:52.745Z,5.24
2023-03-07T16:13:34.597Z,5.20
2023-03-07T16:16:13.668Z,5.18
2023-03-07T16:18:42.415Z,5.17
2023-03-07T16:21:14.959Z,5.16
2023-03-07T16:23:44.677Z,5.14
2023-03-07T16:26:16.225Z,5.12
2023-03-07T16:28:44.452Z,5.13
2023-03-07T16:31:13.372Z,5.12
2023-03-07T16:33:40.967Z,5.11
2023-03-07T16:36:10.371Z,5.10
2023-03-07T16:38:38.395Z,5.13
2023-03-07T16:41:16.684Z,5.14
2023-03-07T16:43:45.575Z,5.14
2023-03-07T16:46:18.078Z,5.14
2023-03-07T16:48:45.812Z,5.16
2023-03-07T16:51:18.879Z,5.17
2023-03-07T16:53:47.706Z,5.15
2023-03-07T16:56:29.756Z,5.15
2023-03-07T16:58:58.602Z,5.16
2023-03-07T17:01:26.299Z,5.16
2023-03-07T17:03:56.366Z,5.18
2023-03-07T17:06:37.218Z,5.17
2023-03-07T17:09:11.274Z,5.15
2023-03-07T17:11:40.726Z,5.14
2023-03-07T17:14:08.702Z,5.15
2023-03-07T17:16:40.101Z,5.16
2023-03-07T17:19:33.976Z,5.13
2023-03-07T17:22:03.017Z,5.14
2023-03-07T17:24:31.091Z,5.12
2023-03-07T17:27:00.380Z,5.09
2023-03-07T17:29:30.735Z,5.05
2023-03-07T17:31:58.408Z,5.06
2023-03-07T17:34:31.435Z,5.06
2023-03-07T17:37:00.351Z,5.05
2023-03-07T17:39:32.281Z,5.06
2023-03-07T17:42:00.768Z,5.07
2023-03-07T17:44:29.179Z,5.06
2023-03-07T17:46:57.220Z,5.07
2023-03-07T17:49:28.125Z,5.07
2023-03-07T17:51:55.689Z,5.08
2023-03-07T17:54:23.265Z,5.08
2023-03-07T17:56:51.025Z,5.07
2023-03-07T17:59:18.693Z,5.07
2023-03-07T18:01:46.308Z,5.06
2023-03-07T18:04:14.025Z,5.07
2023-03-07T18:06:41.697Z,5.06
2023-03-07T18:09:09.438Z,5.05
2023-03-07T18:11:37.076Z,5.06
2023-03-07T18:14:04.696Z,5.06
2023-03-07T18:16:32.748Z,5.07
2023-03-07T18:19:02.952Z,5.06
2023-03-07T18:21:32.490Z,5.06
2023-03-07T18:24:00.151Z,5.07
2023-03-07T18:26:28.098Z,5.07
2023-03-07T18:28:56.525Z,5.07
2023-03-07T18:31:28.241Z,5.08
2023-03-07T18:33:56.244Z,5.08
2023-03-07T18:36:25.327Z,5.09
2023-03-07T18:38:52.947Z,5.10
2023-03-07T18:41:22.457Z,5.10
2023-03-07T18:43:50.744Z,5.10
2023-03-07T18:46:20.367Z,5.12
2023-03-07T18:48:48.212Z,5.12
2023-03-07T18:51:18.396Z,5.11
2023-03-07T18:53:46.047Z,5.12
2023-03-07T18:56:15.858Z,5.12
2023-03-07T18:58:44.565Z,5.11
2023-03-07T19:01:14.870Z,5.10
2023-03-07T19:03:43.227Z,5.10
2023-03-07T19:06:12.399Z,5.11
2023-03-07T19:08:40.540Z,5.11
2023-03-07T19:11:10.859Z,5.09
2023-03-07T19:13:39.309Z,5.06
2023-03-07T19:16:23.443Z,5.05
2023-03-07T19:18:51.381Z,5.04
2023-03-07T19:21:21.547Z,5.04
2023-03-07T19:23:49.821Z,5.05
2023-03-07T19:26:18.840Z,5.01
2023-03-07T19:28:48.576Z,5.00
2023-03-07T19:31:21.510Z,4.97
2023-03-07T19:33:50.531Z,4.94
2023-03-07T19:36:23.035Z,4.92
2023-03-07T19:38:54.015Z,4.90
2023-03-07T19:41:23.679Z,4.90
2023-03-07T19:43:51.723Z,4.91
2023-03-07T19:46:20.259Z,4.94
2023-03-07T19:48:48.060Z,4.96
2023-03-07T19:51:24.195Z,4.97
2023-03-07T19:53:55.335Z,4.98
2023-03-07T19:56:30.153Z,4.98
2023-03-07T19:59:00.102Z,4.97
2023-03-07T20:01:28.976Z,4.95
2023-03-07T20:03:57.083Z,4.93
2023-03-07T20:06:27.539Z,4.91
2023-03-07T20:08:55.971Z,4.88
2023-03-07T20:11:27.347Z,4.87
2023-03-07T20:13:57.286Z,4.84
2023-03-07T20:16:27.666Z,4.84
2023-03-07T20:18:57.081Z,4.85
2023-03-07T20:21:27.976Z,4.86
2023-03-07T20:23:59.571Z,4.88
2023-03-07T20:26:33.942Z,4.91
2023-03-07T20:29:02.625Z,4.93
2023-03-07T20:31:30.486Z,4.95
2023-03-07T20:33:59.926Z,4.94
2023-03-07T20:36:36.793Z,4.95
2023-03-07T20:39:07.899Z,4.93
2023-03-07T20:41:36.176Z,4.91
2023-03-07T20:44:05.805Z,4.90
2023-03-07T20:46:35.013Z,4.89
2023-03-07T20:49:03.263Z,4.89
2023-03-07T20:51:33.208Z,4.88
2023-03-07T20:54:02.940Z,4.84
2023-03-07T20:56:32.126Z,4.82
2023-03-07T20:59:00.047Z,4.78
2023-03-07T21:01:30.051Z,4.77
2023-03-07T21:04:06.184Z,4.74
2023-03-07T21:06:34.913Z,4.73
2023-03-07T21:09:07.847Z,4.72
2023-03-07T21:11:40.646Z,4.70
2023-03-07T21:14:08.501Z,4.66
2023-03-07T21:16:36.364Z,4.64
2023-03-07T21:19:05.995Z,4.63
2023-03-07T21:21:34.836Z,4.60
2023-03-07T21:24:03.151Z,4.59
2023-03-07T21:26:33.048Z,4.58
2023-03-07T21:29:00.668Z,4.57
2023-03-07T21:31:31.007Z,4.55
2023-03-07T21:34:04.059Z,4.52
2023-03-07T21:36:31.979Z,4.48
2023-03-07T21:39:00.347Z,4.43
2023-03-07T21:41:27.960Z,4.28
2023-03-07T21:43:56.533Z,4.03
2023-03-07T21:46:24.747Z,3.73
2023-03-07T21:48:52.447Z,3.43
2023-03-07T21:51:20.608Z,3.17
2023-03-07T21:53:48.399Z,2.96
2023-03-07T21:56:17.144Z,2.80
2023-03-07T21:58:49.157Z,2.71
2023-03-07T22:01:19.855Z,2.60
2023-03-07T22:03:47.761Z,2.50
2023-03-07T22:06:16.750Z,2.43
2023-03-07T22:08:44.495Z,2.36
2023-03-07T22:11:12.961Z,2.29
2023-03-07T22:13:41.771Z,2.23
2023-03-07T22:16:15.114Z,2.16
2023-03-07T22:18:42.966Z,2.11
2023-03-07T22:21:17.101Z,2.08
2023-03-07T22:23:44.780Z,2.06
2023-03-07T22:26:12.910Z,2.04
2023-03-07T22:28:41.129Z,2.01
2023-03-07T22:31:11.360Z,1.99
2023-03-07T22:33:40.250Z,1.95
2023-03-07T22:36:11.315Z,1.92
2023-03-07T22:38:39.638Z,1.91
2023-03-07T22:41:11.382Z,1.91
2023-03-07T22:43:39.100Z,1.90
2023-03-07T22:46:07.882Z,1.89
2023-03-07T22:48:36.165Z,1.87
2023-03-07T22:51:04.491Z,1.86
2023-03-07T22:53:33.444Z,1.84
2023-03-07T22:56:01.512Z,1.83
2023-03-07T22:58:29.912Z,1.83
2023-03-07T23:00:57.549Z,1.82
2023-03-07T23:03:25.314Z,1.83
2023-03-07T23:05:53.031Z,1.84
2023-03-07T23:08:20.688Z,1.84
2023-03-07T23:10:48.330Z,1.85
2023-03-07T23:13:17.216Z,1.85
2023-03-07T23:15:44.950Z,1.85
2023-03-07T23:18:12.618Z,1.86
2023-03-07T23:20:40.234Z,1.87
2023-03-07T23:23:07.807Z,1.86
2023-03-07T23:25:41.200Z,1.83
2023-03-07T23:28:09.488Z,1.79
2023-03-07T23:30:38.611Z,1.76
2023-03-07T23:33:07.045Z,1.73
2023-03-07T23:35:35.327Z,1.71
2023-03-07T23:38:03.764Z,1.69
2023-03-07T23:40:31.434Z,1.67
2023-03-07T23:42:59.051Z,1.64
2023-03-07T23:45:26.844Z,1.63
2023-03-07T23:47:54.736Z,1.62
2023-03-07T23:50:22.581Z,1.61
2023-03-07T23:52:50.188Z,1.60
2023-03-07T23:55:17.856Z,1.59
2023-03-07T23:57:46.500Z,1.60
